This is the latest recevied weather packets stored in our database for station/object OE5RBO. If no packets are shown the sender has not sent any weather packets the latest 10 day(s).
| Time | Temp. | Humidity | Pressure | Rain* | Wind** | Luminosity | Snow |
|---|---|---|---|---|---|---|---|
| 1777653924 | 19.44° C | 45% | 1024.3 hPa | 0 mm | - | - | - |
| 1777653324 | 19.44° C | 44% | 1024.4 hPa | 0 mm | - | - | - |
| 1777652123 | 20° C | 45% | 1024.5 hPa | 0 mm | - | - | - |
| 1777651523 | 20° C | 43% | 1024.5 hPa | 0 mm | - | - | - |
| 1777650923 | 19.44° C | 44% | 1024.5 hPa | 0 mm | - | - | - |
| 1777649722 | 20° C | 42% | 1024.5 hPa | 0 mm | - | - | - |
| 1777649122 | 20° C | 45% | 1024.6 hPa | 0 mm | - | - | - |
| 1777648521 | 20° C | 47% | 1024.7 hPa | 0 mm | - | - | - |
| 1777647921 | 20.56° C | 43% | 1024.8 hPa | 0 mm | - | - | - |
| 1777646120 | 20° C | 41% | 1024.9 hPa | 0 mm | - | - | - |
| 1777645520 | 20° C | 42% | 1025 hPa | 0 mm | - | - | - |
| 1777644319 | 20.56° C | 44% | 1025.3 hPa | 0 mm | - | - | - |
| 1777643118 | 21.11° C | 39% | 1025.4 hPa | 0 mm | - | - | - |
| 1777641917 | 20.56° C | 41% | 1025.6 hPa | 0 mm | - | - | - |
| 1777641317 | 20.56° C | 40% | 1025.6 hPa | 0 mm | - | - | - |
| 1777640716 | 19.44° C | 43% | 1025.2 hPa | 0 mm | - | - | - |
| 1777639516 | 20.56° C | 42% | 1025.8 hPa | 0 mm | - | - | - |
| 1777638916 | 20.56° C | 40% | 1025.8 hPa | 0 mm | - | - | - |
| 1777638315 | 20° C | 43% | 1025.9 hPa | 0 mm | - | - | - |
| 1777637715 | 20.56° C | 40% | 1026 hPa | 0 mm | - | - | - |
| 1777637114 | 20° C | 42% | 1026 hPa | 0 mm | - | - | - |
| 1777636514 | 18.89° C | 43% | 1026.1 hPa | 0 mm | - | - | - |
| 1777635914 | 19.44° C | 42% | 1026.2 hPa | 0 mm | - | - | - |
| 1777635313 | 18.89° C | 44% | 1026.2 hPa | 0 mm | - | - | - |
| 1777634713 | 18.33° C | 43% | 1026.3 hPa | 0 mm | - | - | - |
* Rain since midnight (hover to see other rain measurements)
** Current wind speed in m/s (hover to see current wind gust speed)